Shiloh Hill, Illinois
Current Conditions -  °F | °C
As of 8:15 PM on Sunday 25 Jan 2015 (Local Time) from KSAR Reporting Station
Overcast Overcast  
Wind Chill: 24°   Ceiling: 800
Heat Index: 34°   Visibility: 10mi
Dew Point: 32°   Wind: 16mph
Humidity: 92%   Direction: 350°N
Pressure: 29.89"   Gusts: 28mph
Location:  37.9147°N, 89.5934°W
Report Text: KSAR 260215Z AUTO 35014G24KT 10SM OVC008 01/00 A2989 RMK AO2 T00130001
Loading
Personal Weather Stations






























Interactive Weather Map New forecast layout! Learn more

10-Day Weather Forecast

Advertisements
Track Severe Weather on mobile